sensor_id;sensor_type;location;lat;lon;timestamp;pressure;altitude;pressure_sealevel;temperature;humidity
23166;BME280;11751;42.700;24.170;2023-08-08T00:01:28;93776.56;;;17.05;nan
23166;BME280;11751;42.700;24.170;2023-08-08T00:11:09;93784.69;;;17.10;nan
23166;BME280;11751;42.700;24.170;2023-08-08T00:16:00;93757.03;;;16.88;nan
23166;BME280;11751;42.700;24.170;2023-08-08T00:18:25;93765.03;;;16.70;nan
23166;BME280;11751;42.700;24.170;2023-08-08T00:23:16;93769.44;;;16.22;nan
23166;BME280;11751;42.700;24.170;2023-08-08T00:28:07;93777.56;;;16.67;nan
23166;BME280;11751;42.700;24.170;2023-08-08T00:32:57;93786.91;;;16.70;nan
23166;BME280;11751;42.700;24.170;2023-08-08T00:35:23;93788.97;;;16.79;nan
23166;BME280;11751;42.700;24.170;2023-08-08T00:37:49;93771.16;;;16.67;nan
23166;BME280;11751;42.700;24.170;2023-08-08T00:40:14;93775.06;;;16.62;nan
23166;BME280;11751;42.700;24.170;2023-08-08T00:45:05;93774.50;;;16.54;nan
23166;BME280;11751;42.700;24.170;2023-08-08T00:47:32;93765.22;;;16.63;nan
23166;BME280;11751;42.700;24.170;2023-08-08T00:50:00;93774.34;;;16.82;nan
23166;BME280;11751;42.700;24.170;2023-08-08T00:54:52;93752.19;;;16.79;nan
23166;BME280;11751;42.700;24.170;2023-08-08T00:57:18;93739.19;;;16.64;nan
23166;BME280;11751;42.700;24.170;2023-08-08T00:59:43;93752.06;;;16.77;nan
23166;BME280;11751;42.700;24.170;2023-08-08T01:02:09;93726.13;;;16.80;nan
23166;BME280;11751;42.700;24.170;2023-08-08T01:04:34;93723.91;;;16.79;nan
23166;BME280;11751;42.700;24.170;2023-08-08T01:19:28;93762.69;;;16.88;nan
23166;BME280;11751;42.700;24.170;2023-08-08T01:22:01;93783.16;;;16.98;nan
23166;BME280;11751;42.700;24.170;2023-08-08T01:24:30;93810.69;;;16.97;nan
23166;BME280;11751;42.700;24.170;2023-08-08T01:26:59;93822.88;;;16.79;nan
23166;BME280;11751;42.700;24.170;2023-08-08T01:29:25;93838.69;;;16.72;nan
23166;BME280;11751;42.700;24.170;2023-08-08T01:31:51;93860.97;;;16.47;nan
23166;BME280;11751;42.700;24.170;2023-08-08T01:34:16;93859.59;;;16.58;nan
23166;BME280;11751;42.700;24.170;2023-08-08T01:36:55;93852.34;;;16.45;nan
23166;BME280;11751;42.700;24.170;2023-08-08T01:39:30;93843.47;;;16.39;nan
23166;BME280;11751;42.700;24.170;2023-08-08T01:41:56;93842.91;;;16.31;nan
23166;BME280;11751;42.700;24.170;2023-08-08T01:44:22;93832.94;;;16.21;nan
23166;BME280;11751;42.700;24.170;2023-08-08T01:46:51;93816.28;;;16.25;nan
23166;BME280;11751;42.700;24.170;2023-08-08T01:49:17;93810.16;;;16.28;nan
23166;BME280;11751;42.700;24.170;2023-08-08T01:51:42;93793.38;;;16.21;nan
23166;BME280;11751;42.700;24.170;2023-08-08T01:54:08;93786.31;;;16.01;nan
23166;BME280;11751;42.700;24.170;2023-08-08T01:56:34;93775.81;;;16.32;nan
23166;BME280;11751;42.700;24.170;2023-08-08T01:58:59;93788.25;;;16.48;nan
23166;BME280;11751;42.700;24.170;2023-08-08T02:01:24;93774.50;;;16.54;nan
23166;BME280;11751;42.700;24.170;2023-08-08T02:03:50;93794.31;;;16.75;nan
23166;BME280;11751;42.700;24.170;2023-08-08T02:06:15;93786.53;;;16.85;nan
23166;BME280;11751;42.700;24.170;2023-08-08T02:08:41;93780.25;;;16.86;nan
23166;BME280;11751;42.700;24.170;2023-08-08T02:11:06;93782.34;;;16.86;nan
23166;BME280;11751;42.700;24.170;2023-08-08T02:13:31;93787.53;;;16.89;nan
23166;BME280;11751;42.700;24.170;2023-08-08T02:15:57;93803.63;;;16.87;nan
23166;BME280;11751;42.700;24.170;2023-08-08T02:18:22;93804.66;;;16.61;nan
23166;BME280;11751;42.700;24.170;2023-08-08T02:20:48;93811.28;;;16.75;nan
23166;BME280;11751;42.700;24.170;2023-08-08T02:23:13;93819.63;;;16.73;nan
23166;BME280;11751;42.700;24.170;2023-08-08T02:25:39;93809.34;;;16.77;nan
23166;BME280;11751;42.700;24.170;2023-08-08T02:28:04;93812.22;;;16.37;nan
23166;BME280;11751;42.700;24.170;2023-08-08T02:30:30;93815.66;;;16.36;nan
23166;BME280;11751;42.700;24.170;2023-08-08T02:32:55;93821.59;;;16.40;nan
23166;BME280;11751;42.700;24.170;2023-08-08T02:35:21;93829.84;;;16.57;nan
23166;BME280;11751;42.700;24.170;2023-08-08T02:37:46;93818.81;;;16.61;nan
23166;BME280;11751;42.700;24.170;2023-08-08T02:40:11;93831.59;;;16.62;nan
23166;BME280;11751;42.700;24.170;2023-08-08T02:42:37;93833.25;;;16.55;nan
23166;BME280;11751;42.700;24.170;2023-08-08T02:45:03;93823.44;;;16.56;nan
23166;BME280;11751;42.700;24.170;2023-08-08T02:47:28;93824.03;;;16.15;nan
23166;BME280;11751;42.700;24.170;2023-08-08T02:49:54;93818.81;;;16.30;nan
23166;BME280;11751;42.700;24.170;2023-08-08T02:52:19;93830.25;;;16.32;nan
23166;BME280;11751;42.700;24.170;2023-08-08T02:54:44;93835.00;;;16.30;nan
23166;BME280;11751;42.700;24.170;2023-08-08T02:57:10;93834.38;;;16.41;nan
23166;BME280;11751;42.700;24.170;2023-08-08T02:59:37;93822.81;;;16.37;nan
23166;BME280;11751;42.700;24.170;2023-08-08T03:02:03;93811.34;;;16.25;nan
23166;BME280;11751;42.700;24.170;2023-08-08T03:04:29;93832.94;;;16.21;nan
23166;BME280;11751;42.700;24.170;2023-08-08T03:06:54;93852.25;;;16.34;nan
23166;BME280;11751;42.700;24.170;2023-08-08T03:09:19;93855.09;;;16.34;nan
23166;BME280;11751;42.700;24.170;2023-08-08T03:11:45;93845.69;;;16.41;nan
23166;BME280;11751;42.700;24.170;2023-08-08T03:14:10;93853.88;;;16.27;nan
23166;BME280;11751;42.700;24.170;2023-08-08T03:16:36;93837.50;;;15.86;nan
23166;BME280;11751;42.700;24.170;2023-08-08T03:19:01;93849.69;;;15.89;nan
23166;BME280;11751;42.700;24.170;2023-08-08T03:21:27;93841.38;;;15.81;nan
23166;BME280;11751;42.700;24.170;2023-08-08T03:23:53;93827.28;;;15.62;nan
23166;BME280;11751;42.700;24.170;2023-08-08T03:26:19;93814.06;;;15.74;nan
23166;BME280;11751;42.700;24.170;2023-08-08T03:28:44;93832.47;;;15.75;nan
23166;BME280;11751;42.700;24.170;2023-08-08T03:31:10;93848.34;;;15.90;nan
23166;BME280;11751;42.700;24.170;2023-08-08T03:33:35;93862.78;;;15.84;nan
23166;BME280;11751;42.700;24.170;2023-08-08T03:36:00;93878.41;;;15.66;nan
23166;BME280;11751;42.700;24.170;2023-08-08T03:38:26;93877.66;;;15.56;nan
23166;BME280;11751;42.700;24.170;2023-08-08T03:40:51;93895.63;;;15.61;nan
23166;BME280;11751;42.700;24.170;2023-08-08T03:43:17;93883.03;;;15.43;nan
23166;BME280;11751;42.700;24.170;2023-08-08T03:45:42;93889.56;;;15.55;nan
23166;BME280;11751;42.700;24.170;2023-08-08T03:48:09;93901.41;;;15.72;nan
23166;BME280;11751;42.700;24.170;2023-08-08T03:50:34;93899.19;;;15.71;nan
23166;BME280;11751;42.700;24.170;2023-08-08T03:52:59;93921.34;;;15.74;nan
23166;BME280;11751;42.700;24.170;2023-08-08T03:55:25;93916.53;;;15.96;nan
23166;BME280;11751;42.700;24.170;2023-08-08T03:57:51;93921.88;;;16.11;nan
23166;BME280;11751;42.700;24.170;2023-08-08T04:00:16;93926.31;;;16.23;nan
23166;BME280;11751;42.700;24.170;2023-08-08T04:02:42;93930.22;;;16.18;nan
23166;BME280;11751;42.700;24.170;2023-08-08T04:05:08;93945.09;;;16.09;nan
23166;BME280;11751;42.700;24.170;2023-08-08T04:07:34;93933.03;;;16.18;nan
23166;BME280;11751;42.700;24.170;2023-08-08T04:09:59;93937.03;;;16.15;nan
23166;BME280;11751;42.700;24.170;2023-08-08T04:12:25;93955.34;;;16.05;nan
23166;BME280;11751;42.700;24.170;2023-08-08T04:14:50;93964.09;;;16.09;nan
23166;BME280;11751;42.700;24.170;2023-08-08T04:17:16;93972.88;;;16.13;nan
23166;BME280;11751;42.700;24.170;2023-08-08T04:19:41;93952.97;;;16.01;nan
23166;BME280;11751;42.700;24.170;2023-08-08T04:22:06;93959.34;;;16.11;nan
23166;BME280;11751;42.700;24.170;2023-08-08T04:24:32;93966.47;;;16.12;nan
23166;BME280;11751;42.700;24.170;2023-08-08T04:26:57;93945.09;;;16.09;nan
23166;BME280;11751;42.700;24.170;2023-08-08T04:29:23;93956.38;;;16.19;nan
23166;BME280;11751;42.700;24.170;2023-08-08T04:31:48;93961.59;;;16.13;nan
23166;BME280;11751;42.700;24.170;2023-08-08T04:34:14;93977.66;;;16.10;nan
23166;BME280;11751;42.700;24.170;2023-08-08T04:36:39;93973.00;;;16.24;nan
23166;BME280;11751;42.700;24.170;2023-08-08T04:39:04;93969.00;;;16.27;nan
23166;BME280;11751;42.700;24.170;2023-08-08T04:41:30;93955.50;;;15.97;nan
23166;BME280;11751;42.700;24.170;2023-08-08T04:43:55;93939.75;;;15.94;nan
23166;BME280;11751;42.700;24.170;2023-08-08T04:46:20;93970.06;;;16.03;nan
23166;BME280;11751;42.700;24.170;2023-08-08T04:48:46;93972.72;;;16.20;nan
23166;BME280;11751;42.700;24.170;2023-08-08T04:51:11;93993.84;;;16.10;nan
23166;BME280;11751;42.700;24.170;2023-08-08T04:53:37;93977.03;;;16.12;nan
23166;BME280;11751;42.700;24.170;2023-08-08T04:56:02;93988.34;;;16.02;nan
23166;BME280;11751;42.700;24.170;2023-08-08T04:58:28;93988.03;;;16.17;nan
23166;BME280;11751;42.700;24.170;2023-08-08T05:00:53;93975.69;;;16.22;nan
23166;BME280;11751;42.700;24.170;2023-08-08T05:03:20;93958.59;;;16.29;nan
23166;BME280;11751;42.700;24.170;2023-08-08T05:05:45;93957.09;;;16.28;nan
23166;BME280;11751;42.700;24.170;2023-08-08T05:08:12;93959.19;;;16.37;nan
23166;BME280;11751;42.700;24.170;2023-08-08T05:10:38;93959.00;;;16.45;nan
23166;BME280;11751;42.700;24.170;2023-08-08T05:13:03;93978.53;;;16.31;nan
23166;BME280;11751;42.700;24.170;2023-08-08T05:15:29;93962.63;;;16.17;nan
23166;BME280;11751;42.700;24.170;2023-08-08T05:17:55;93969.47;;;16.05;nan
23166;BME280;11751;42.700;24.170;2023-08-08T05:20:21;93974.81;;;15.91;nan
23166;BME280;11751;42.700;24.170;2023-08-08T05:22:46;93987.00;;;16.13;nan
23166;BME280;11751;42.700;24.170;2023-08-08T05:25:12;93984.31;;;16.24;nan
23166;BME280;11751;42.700;24.170;2023-08-08T05:27:37;93973.91;;;16.36;nan
23166;BME280;11751;42.700;24.170;2023-08-08T05:30:03;93969.13;;;16.48;nan
23166;BME280;11751;42.700;24.170;2023-08-08T05:32:29;93967.97;;;17.12;nan
23166;BME280;11751;42.700;24.170;2023-08-08T05:34:55;93969.13;;;17.90;nan
23166;BME280;11751;42.700;24.170;2023-08-08T05:37:23;93972.47;;;18.19;nan
23166;BME280;11751;42.700;24.170;2023-08-08T05:39:48;93980.66;;;18.03;nan
23166;BME280;11751;42.700;24.170;2023-08-08T05:42:14;93980.69;;;17.62;nan
23166;BME280;11751;42.700;24.170;2023-08-08T05:44:39;93987.50;;;17.47;nan
23166;BME280;11751;42.700;24.170;2023-08-08T05:47:07;93996.25;;;17.72;nan
23166;BME280;11751;42.700;24.170;2023-08-08T05:49:32;94003.00;;;17.46;nan
23166;BME280;11751;42.700;24.170;2023-08-08T05:51:58;94000.59;;;17.94;nan
23166;BME280;11751;42.700;24.170;2023-08-08T05:54:23;93993.78;;;18.20;nan
23166;BME280;11751;42.700;24.170;2023-08-08T05:56:48;93998.53;;;18.27;nan
23166;BME280;11751;42.700;24.170;2023-08-08T05:59:14;94016.03;;;18.23;nan
23166;BME280;11751;42.700;24.170;2023-08-08T06:01:39;94010.81;;;17.78;nan
23166;BME280;11751;42.700;24.170;2023-08-08T06:04:05;94010.09;;;17.78;nan
23166;BME280;11751;42.700;24.170;2023-08-08T06:06:30;94000.56;;;18.15;nan
23166;BME280;11751;42.700;24.170;2023-08-08T06:08:56;93991.66;;;18.30;nan
23166;BME280;11751;42.700;24.170;2023-08-08T06:11:21;93987.19;;;18.27;nan
23166;BME280;11751;42.700;24.170;2023-08-08T06:13:47;94001.63;;;18.63;nan
23166;BME280;11751;42.700;24.170;2023-08-08T06:16:13;94010.47;;;19.01;nan
23166;BME280;11751;42.700;24.170;2023-08-08T06:18:39;94017.13;;;19.06;nan
23166;BME280;11751;42.700;24.170;2023-08-08T06:21:04;94014.47;;;19.19;nan
23166;BME280;11751;42.700;24.170;2023-08-08T06:23:29;94026.63;;;18.99;nan
23166;BME280;11751;42.700;24.170;2023-08-08T06:25:55;94028.84;;;19.00;nan
23166;BME280;11751;42.700;24.170;2023-08-08T06:28:20;94032.59;;;19.14;nan
23166;BME280;11751;42.700;24.170;2023-08-08T06:30:46;94015.34;;;19.45;nan
23166;BME280;11751;42.700;24.170;2023-08-08T06:33:11;94013.34;;;19.59;nan
23166;BME280;11751;42.700;24.170;2023-08-08T06:35:38;94020.63;;;19.73;nan
23166;BME280;11751;42.700;24.170;2023-08-08T06:38:04;94024.19;;;19.85;nan
23166;BME280;11751;42.700;24.170;2023-08-08T06:40:29;94023.47;;;19.84;nan
23166;BME280;11751;42.700;24.170;2023-08-08T06:42:55;94015.53;;;20.06;nan
23166;BME280;11751;42.700;24.170;2023-08-08T06:45:21;94012.19;;;20.46;nan
23166;BME280;11751;42.700;24.170;2023-08-08T06:47:46;94017.94;;;20.59;nan
23166;BME280;11751;42.700;24.170;2023-08-08T06:50:12;94019.81;;;20.55;nan
23166;BME280;11751;42.700;24.170;2023-08-08T06:52:37;94018.78;;;20.62;nan
23166;BME280;11751;42.700;24.170;2023-08-08T06:55:03;94043.41;;;20.32;nan
23166;BME280;11751;42.700;24.170;2023-08-08T06:57:32;94048.91;;;19.82;nan
23166;BME280;11751;42.700;24.170;2023-08-08T06:59:58;94044.22;;;19.98;nan
23166;BME280;11751;42.700;24.170;2023-08-08T07:02:23;94051.63;;;19.92;nan
23166;BME280;11751;42.700;24.170;2023-08-08T07:04:49;94058.06;;;19.58;nan
23166;BME280;11751;42.700;24.170;2023-08-08T07:07:14;94071.66;;;19.04;nan
23166;BME280;11751;42.700;24.170;2023-08-08T07:09:39;94056.25;;;19.07;nan
23166;BME280;11751;42.700;24.170;2023-08-08T07:12:05;94064.59;;;19.49;nan
23166;BME280;11751;42.700;24.170;2023-08-08T07:14:31;94056.69;;;19.71;nan
23166;BME280;11751;42.700;24.170;2023-08-08T07:16:57;94071.91;;;19.98;nan
23166;BME280;11751;42.700;24.170;2023-08-08T07:19:23;94075.09;;;20.15;nan
23166;BME280;11751;42.700;24.170;2023-08-08T07:21:49;94051.25;;;20.09;nan
23166;BME280;11751;42.700;24.170;2023-08-08T07:24:16;94072.63;;;19.98;nan
23166;BME280;11751;42.700;24.170;2023-08-08T07:26:41;94075.97;;;19.61;nan
23166;BME280;11751;42.700;24.170;2023-08-08T07:29:09;94084.00;;;19.76;nan
23166;BME280;11751;42.700;24.170;2023-08-08T07:31:35;94097.94;;;19.37;nan
23166;BME280;11751;42.700;24.170;2023-08-08T07:34:00;94074.59;;;19.27;nan
23166;BME280;11751;42.700;24.170;2023-08-08T07:36:26;94081.97;;;19.21;nan
23166;BME280;11751;42.700;24.170;2023-08-08T07:38:51;94073.38;;;19.30;nan
23166;BME280;11751;42.700;24.170;2023-08-08T07:41:17;94072.53;;;19.62;nan
23166;BME280;11751;42.700;24.170;2023-08-08T07:43:43;94058.31;;;19.62;nan
23166;BME280;11751;42.700;24.170;2023-08-08T07:46:09;94053.00;;;19.68;nan
23166;BME280;11751;42.700;24.170;2023-08-08T07:48:34;94063.84;;;20.06;nan
23166;BME280;11751;42.700;24.170;2023-08-08T07:51:05;94048.41;;;19.97;nan
23166;BME280;11751;42.700;24.170;2023-08-08T07:53:31;94041.25;;;20.08;nan
23166;BME280;11751;42.700;24.170;2023-08-08T07:55:56;94058.13;;;20.65;nan
23166;BME280;11751;42.700;24.170;2023-08-08T07:58:22;94064.19;;;20.96;nan
23166;BME280;11751;42.700;24.170;2023-08-08T08:00:51;94052.94;;;20.62;nan
23166;BME280;11751;42.700;24.170;2023-08-08T08:03:21;94047.69;;;20.81;nan
23166;BME280;11751;42.700;24.170;2023-08-08T08:05:47;94060.59;;;21.20;nan
23166;BME280;11751;42.700;24.170;2023-08-08T08:08:12;94052.97;;;21.50;nan
23166;BME280;11751;42.700;24.170;2023-08-08T08:10:38;94060.53;;;21.32;nan
23166;BME280;11751;42.700;24.170;2023-08-08T08:13:03;94055.22;;;21.13;nan
23166;BME280;11751;42.700;24.170;2023-08-08T08:15:29;94066.63;;;21.26;nan
23166;BME280;11751;42.700;24.170;2023-08-08T08:17:56;94047.75;;;21.84;nan
23166;BME280;11751;42.700;24.170;2023-08-08T08:20:21;94063.81;;;21.78;nan
23166;BME280;11751;42.700;24.170;2023-08-08T08:22:47;94053.78;;;21.00;nan
23166;BME280;11751;42.700;24.170;2023-08-08T08:25:13;94056.59;;;21.25;nan
23166;BME280;11751;42.700;24.170;2023-08-08T08:27:39;94059.50;;;21.77;nan
23166;BME280;11751;42.700;24.170;2023-08-08T08:30:06;94060.56;;;21.97;nan
23166;BME280;11751;42.700;24.170;2023-08-08T08:32:38;94041.84;;;22.21;nan
23166;BME280;11751;42.700;24.170;2023-08-08T08:35:04;94055.13;;;22.43;nan
23166;BME280;11751;42.700;24.170;2023-08-08T08:37:32;94061.03;;;22.60;nan
23166;BME280;11751;42.700;24.170;2023-08-08T08:39:57;94065.03;;;22.69;nan
23166;BME280;11751;42.700;24.170;2023-08-08T08:42:23;94074.03;;;22.63;nan
23166;BME280;11751;42.700;24.170;2023-08-08T08:44:50;94064.56;;;21.92;nan
23166;BME280;11751;42.700;24.170;2023-08-08T08:47:17;94072.28;;;21.51;nan
23166;BME280;11751;42.700;24.170;2023-08-08T08:49:45;94065.63;;;21.85;nan
23166;BME280;11751;42.700;24.170;2023-08-08T08:52:11;94065.78;;;21.62;nan
23166;BME280;11751;42.700;24.170;2023-08-08T08:54:37;94073.41;;;21.71;nan
23166;BME280;11751;42.700;24.170;2023-08-08T08:57:03;94080.53;;;20.95;nan
23166;BME280;11751;42.700;24.170;2023-08-08T09:00:08;94051.03;;;21.02;nan
23166;BME280;11751;42.700;24.170;2023-08-08T09:02:34;94084.28;;;21.11;nan
23166;BME280;11751;42.700;24.170;2023-08-08T09:05:03;94064.34;;;21.11;nan
23166;BME280;11751;42.700;24.170;2023-08-08T09:07:33;94075.31;;;21.03;nan
23166;BME280;11751;42.700;24.170;2023-08-08T09:09:59;94089.91;;;21.09;nan
23166;BME280;11751;42.700;24.170;2023-08-08T09:12:24;94087.03;;;20.84;nan
23166;BME280;11751;42.700;24.170;2023-08-08T09:14:55;94087.94;;;21.00;nan
23166;BME280;11751;42.700;24.170;2023-08-08T09:17:21;94096.75;;;21.18;nan
23166;BME280;11751;42.700;24.170;2023-08-08T09:19:47;94098.84;;;21.42;nan
23166;BME280;11751;42.700;24.170;2023-08-08T09:22:13;94108.78;;;21.66;nan
23166;BME280;11751;42.700;24.170;2023-08-08T09:24:40;94103.31;;;21.97;nan
23166;BME280;11751;42.700;24.170;2023-08-08T09:27:08;94106.09;;;21.56;nan
23166;BME280;11751;42.700;24.170;2023-08-08T09:29:35;94093.69;;;21.39;nan
23166;BME280;11751;42.700;24.170;2023-08-08T09:32:03;94103.47;;;21.60;nan
23166;BME280;11751;42.700;24.170;2023-08-08T09:34:29;94102.16;;;22.02;nan
23166;BME280;11751;42.700;24.170;2023-08-08T09:36:54;94100.13;;;22.18;nan
23166;BME280;11751;42.700;24.170;2023-08-08T09:39:20;94103.63;;;22.03;nan
23166;BME280;11751;42.700;24.170;2023-08-08T09:41:46;94108.38;;;21.85;nan
23166;BME280;11751;42.700;24.170;2023-08-08T09:44:12;94086.91;;;21.70;nan
23166;BME280;11751;42.700;24.170;2023-08-08T09:46:39;94097.50;;;21.95;nan
23166;BME280;11751;42.700;24.170;2023-08-08T09:49:05;94084.44;;;22.17;nan
23166;BME280;11751;42.700;24.170;2023-08-08T09:51:31;94096.03;;;21.94;nan
23166;BME280;11751;42.700;24.170;2023-08-08T09:53:59;94091.59;;;21.91;nan
23166;BME280;11751;42.700;24.170;2023-08-08T09:56:24;94100.47;;;22.50;nan
23166;BME280;11751;42.700;24.170;2023-08-08T09:58:51;94090.09;;;22.70;nan
23166;BME280;11751;42.700;24.170;2023-08-08T10:01:16;94087.94;;;22.84;nan
23166;BME280;11751;42.700;24.170;2023-08-08T10:03:44;94095.19;;;23.14;nan
23166;BME280;11751;42.700;24.170;2023-08-08T10:06:10;94096.97;;;22.65;nan
23166;BME280;11751;42.700;24.170;2023-08-08T10:08:36;94103.22;;;22.48;nan
23166;BME280;11751;42.700;24.170;2023-08-08T10:11:02;94105.72;;;22.69;nan
23166;BME280;11751;42.700;24.170;2023-08-08T10:13:28;94103.38;;;22.79;nan
23166;BME280;11751;42.700;24.170;2023-08-08T10:15:54;94108.69;;;23.42;nan
23166;BME280;11751;42.700;24.170;2023-08-08T10:18:23;94082.81;;;23.54;nan
23166;BME280;11751;42.700;24.170;2023-08-08T10:20:50;94101.38;;;23.24;nan
23166;BME280;11751;42.700;24.170;2023-08-08T10:23:17;94098.22;;;23.18;nan
23166;BME280;11751;42.700;24.170;2023-08-08T10:25:51;94097.53;;;23.04;nan
23166;BME280;11751;42.700;24.170;2023-08-08T10:28:19;94099.28;;;23.40;nan
23166;BME280;11751;42.700;24.170;2023-08-08T10:30:58;94090.44;;;23.34;nan
23166;BME280;11751;42.700;24.170;2023-08-08T10:33:28;94088.22;;;23.32;nan
23166;BME280;11751;42.700;24.170;2023-08-08T10:36:00;94088.97;;;23.93;nan
23166;BME280;11751;42.700;24.170;2023-08-08T10:38:41;94088.34;;;23.65;nan
23166;BME280;11751;42.700;24.170;2023-08-08T10:41:11;94083.25;;;23.93;nan
23166;BME280;11751;42.700;24.170;2023-08-08T10:43:37;94073.19;;;23.92;nan
23166;BME280;11751;42.700;24.170;2023-08-08T10:46:03;94078.06;;;24.05;nan
23166;BME280;11751;42.700;24.170;2023-08-08T10:48:29;94071.56;;;24.50;nan
23166;BME280;11751;42.700;24.170;2023-08-08T10:50:57;94072.19;;;24.82;nan
23166;BME280;11751;42.700;24.170;2023-08-08T10:53:25;94071.34;;;25.12;nan
23166;BME280;11751;42.700;24.170;2023-08-08T10:55:59;94070.84;;;25.35;nan
23166;BME280;11751;42.700;24.170;2023-08-08T10:58:38;94073.00;;;24.67;nan
23166;BME280;11751;42.700;24.170;2023-08-08T11:01:04;94079.63;;;24.71;nan
23166;BME280;11751;42.700;24.170;2023-08-08T11:03:39;94069.63;;;24.72;nan
23166;BME280;11751;42.700;24.170;2023-08-08T11:06:08;94077.13;;;24.16;nan
23166;BME280;11751;42.700;24.170;2023-08-08T11:08:34;94075.69;;;23.84;nan
23166;BME280;11751;42.700;24.170;2023-08-08T11:11:01;94080.19;;;23.29;nan
23166;BME280;11751;42.700;24.170;2023-08-08T11:13:29;94077.22;;;23.27;nan
23166;BME280;11751;42.700;24.170;2023-08-08T11:15:55;94072.53;;;24.09;nan
23166;BME280;11751;42.700;24.170;2023-08-08T11:18:20;94074.38;;;24.02;nan
23166;BME280;11751;42.700;24.170;2023-08-08T11:20:47;94083.25;;;23.93;nan
23166;BME280;11751;42.700;24.170;2023-08-08T11:23:13;94074.63;;;23.62;nan
23166;BME280;11751;42.700;24.170;2023-08-08T11:25:42;94067.72;;;23.98;nan
23166;BME280;11751;42.700;24.170;2023-08-08T11:28:08;94065.19;;;24.36;nan
23166;BME280;11751;42.700;24.170;2023-08-08T11:30:37;94071.22;;;24.12;nan
23166;BME280;11751;42.700;24.170;2023-08-08T11:33:03;94064.94;;;24.15;nan
23166;BME280;11751;42.700;24.170;2023-08-08T11:35:29;94073.72;;;23.73;nan
23166;BME280;11751;42.700;24.170;2023-08-08T11:37:56;94068.97;;;23.33;nan
23166;BME280;11751;42.700;24.170;2023-08-08T11:40:23;94076.75;;;23.77;nan
23166;BME280;11751;42.700;24.170;2023-08-08T11:42:50;94062.19;;;24.02;nan
23166;BME280;11751;42.700;24.170;2023-08-08T11:45:17;94056.25;;;24.28;nan
23166;BME280;11751;42.700;24.170;2023-08-08T11:47:43;94061.13;;;24.74;nan
23166;BME280;11751;42.700;24.170;2023-08-08T11:50:10;94046.38;;;25.14;nan
23166;BME280;11751;42.700;24.170;2023-08-08T11:52:44;94066.72;;;25.05;nan
23166;BME280;11751;42.700;24.170;2023-08-08T11:55:10;94037.53;;;24.58;nan
23166;BME280;11751;42.700;24.170;2023-08-08T11:57:37;94042.13;;;25.15;nan
23166;BME280;11751;42.700;24.170;2023-08-08T12:00:05;94044.34;;;25.17;nan
23166;BME280;11751;42.700;24.170;2023-08-08T12:02:32;94043.38;;;25.65;nan
23166;BME280;11751;42.700;24.170;2023-08-08T12:05:06;94041.59;;;25.93;nan
23166;BME280;11751;42.700;24.170;2023-08-08T12:07:33;94047.13;;;25.87;nan
23166;BME280;11751;42.700;24.170;2023-08-08T12:10:03;94046.16;;;25.99;nan
23166;BME280;11751;42.700;24.170;2023-08-08T12:12:33;94043.63;;;26.46;nan
23166;BME280;11751;42.700;24.170;2023-08-08T12:15:05;94043.63;;;26.46;nan
23166;BME280;11751;42.700;24.170;2023-08-08T12:17:31;94026.88;;;26.60;nan
23166;BME280;11751;42.700;24.170;2023-08-08T12:20:00;94046.72;;;26.33;nan
23166;BME280;11751;42.700;24.170;2023-08-08T12:22:25;94044.28;;;25.52;nan
23166;BME280;11751;42.700;24.170;2023-08-08T12:24:51;94027.78;;;25.33;nan
23166;BME280;11751;42.700;24.170;2023-08-08T12:27:17;94031.69;;;24.89;nan
23166;BME280;11751;42.700;24.170;2023-08-08T12:29:42;94030.66;;;23.84;nan
23166;BME280;11751;42.700;24.170;2023-08-08T12:32:08;94028.41;;;23.52;nan
23166;BME280;11751;42.700;24.170;2023-08-08T12:34:34;94027.50;;;23.94;nan
23166;BME280;11751;42.700;24.170;2023-08-08T12:37:00;94021.03;;;23.47;nan
23166;BME280;11751;42.700;24.170;2023-08-08T12:39:25;94037.00;;;23.98;nan
23166;BME280;11751;42.700;24.170;2023-08-08T12:41:51;94034.84;;;24.29;nan
23166;BME280;11751;42.700;24.170;2023-08-08T12:44:16;94022.41;;;24.73;nan
23166;BME280;11751;42.700;24.170;2023-08-08T12:46:42;94028.75;;;24.87;nan
23166;BME280;11751;42.700;24.170;2023-08-08T12:49:07;94021.81;;;25.27;nan
23166;BME280;11751;42.700;24.170;2023-08-08T12:51:33;94029.81;;;24.96;nan
23166;BME280;11751;42.700;24.170;2023-08-08T12:53:58;94028.78;;;24.54;nan
23166;BME280;11751;42.700;24.170;2023-08-08T12:56:24;94027.75;;;24.15;nan
23166;BME280;11751;42.700;24.170;2023-08-08T12:58:49;94029.09;;;24.29;nan
23166;BME280;11751;42.700;24.170;2023-08-08T13:01:15;94038.56;;;24.01;nan
23166;BME280;11751;42.700;24.170;2023-08-08T13:03:40;94034.28;;;23.40;nan
23166;BME280;11751;42.700;24.170;2023-08-08T13:06:06;94034.38;;;22.98;nan
23166;BME280;11751;42.700;24.170;2023-08-08T13:08:31;94035.19;;;23.14;nan
23166;BME280;11751;42.700;24.170;2023-08-08T13:10:58;94031.69;;;23.16;nan
23166;BME280;11751;42.700;24.170;2023-08-08T13:13:23;94030.34;;;23.63;nan
23166;BME280;11751;42.700;24.170;2023-08-08T13:15:50;94034.50;;;23.60;nan
23166;BME280;11751;42.700;24.170;2023-08-08T13:18:16;94020.09;;;23.73;nan
23166;BME280;11751;42.700;24.170;2023-08-08T13:20:41;94038.00;;;23.43;nan
23166;BME280;11751;42.700;24.170;2023-08-08T13:23:07;94024.72;;;23.65;nan
23166;BME280;11751;42.700;24.170;2023-08-08T13:25:33;94038.19;;;23.93;nan
23166;BME280;11751;42.700;24.170;2023-08-08T13:28:00;94045.72;;;23.56;nan
23166;BME280;11751;42.700;24.170;2023-08-08T13:30:26;94036.44;;;23.71;nan
23166;BME280;11751;42.700;24.170;2023-08-08T13:32:51;94036.44;;;23.55;nan
23166;BME280;11751;42.700;24.170;2023-08-08T13:35:16;94038.00;;;23.58;nan
23166;BME280;11751;42.700;24.170;2023-08-08T13:37:42;94045.13;;;23.73;nan
23166;BME280;11751;42.700;24.170;2023-08-08T13:40:08;94047.53;;;23.78;nan